createdAt,value
2023-02-14T00:00:00.510Z,1.1
2023-02-14T00:01:00.762Z,1.1
2023-02-14T00:02:00.484Z,1.1
2023-02-14T00:03:00.534Z,1.1
2023-02-14T00:04:00.532Z,1.1
2023-02-14T00:05:00.509Z,1.1
2023-02-14T00:06:00.489Z,1.1
2023-02-14T00:07:00.519Z,1.1
2023-02-14T00:08:00.496Z,1.1
2023-02-14T00:09:00.495Z,1.1
2023-02-14T00:10:00.538Z,1.1
2023-02-14T00:11:00.733Z,1.1
2023-02-14T00:12:00.518Z,1.1
2023-02-14T00:13:00.504Z,1.1
2023-02-14T00:14:00.521Z,1.1
2023-02-14T00:15:00.531Z,1.1
2023-02-14T00:16:00.680Z,1.1
2023-02-14T00:17:00.534Z,1.1
2023-02-14T00:18:00.533Z,1.1
2023-02-14T00:19:00.530Z,1.1
2023-02-14T00:20:00.560Z,1.1
2023-02-14T00:21:00.787Z,1.1
2023-02-14T00:22:00.532Z,1.1
2023-02-14T00:23:00.533Z,1.1
2023-02-14T00:24:00.508Z,1.1
2023-02-14T00:25:00.506Z,1.1
2023-02-14T00:26:00.508Z,1.1
2023-02-14T00:27:00.533Z,1.1
2023-02-14T00:28:00.512Z,1.1
2023-02-14T00:29:00.535Z,1.1
2023-02-14T00:30:00.606Z,1.1
2023-02-14T00:31:01.068Z,1.1
2023-02-14T00:32:00.626Z,1.1
2023-02-14T00:33:00.526Z,1.1
2023-02-14T00:34:00.540Z,1.1
2023-02-14T00:35:00.529Z,1.1
2023-02-14T00:36:00.518Z,1.1
2023-02-14T00:37:00.559Z,1.1
2023-02-14T00:38:00.530Z,1.1
2023-02-14T00:39:00.545Z,1.1
2023-02-14T00:40:00.542Z,1.1
2023-02-14T00:41:00.869Z,1.1
2023-02-14T00:42:00.526Z,1.1
2023-02-14T00:43:00.537Z,1.1
2023-02-14T00:44:00.557Z,1.1
2023-02-14T00:45:00.532Z,1.1
2023-02-14T00:46:00.601Z,1.1
2023-02-14T00:47:00.544Z,1.1
2023-02-14T00:48:00.532Z,1.1
2023-02-14T00:49:00.549Z,1.1
2023-02-14T00:50:00.565Z,1.1
2023-02-14T00:51:00.921Z,1.1
2023-02-14T00:52:00.551Z,1.1
2023-02-14T00:53:00.579Z,1.1
2023-02-14T00:54:00.545Z,1.1
2023-02-14T00:55:00.560Z,1.1
2023-02-14T00:56:00.565Z,1.1
2023-02-14T00:57:00.547Z,1.1
2023-02-14T00:58:00.565Z,1.1
2023-02-14T00:59:00.569Z,1.1
2023-02-14T01:00:00.569Z,1.1
2023-02-14T01:01:01.010Z,1.1
2023-02-14T01:02:00.561Z,1.1
2023-02-14T01:03:00.564Z,1.1
2023-02-14T01:04:00.550Z,1.1
2023-02-14T01:05:00.557Z,1.1
2023-02-14T01:06:00.604Z,1.1
2023-02-14T01:07:00.578Z,1.1
2023-02-14T01:08:00.560Z,1.1
2023-02-14T01:09:00.573Z,1.1
2023-02-14T01:10:00.804Z,1.1
2023-02-14T01:11:01.053Z,1.1
2023-02-14T01:12:00.556Z,1.1
2023-02-14T01:13:00.560Z,1.1
2023-02-14T01:14:00.573Z,1.1
2023-02-14T01:15:00.571Z,1.1
2023-02-14T01:16:00.580Z,1.1
2023-02-14T01:17:00.569Z,1.1
2023-02-14T01:18:00.612Z,1.1
2023-02-14T01:19:00.594Z,1.1
2023-02-14T01:20:00.583Z,1.1
2023-02-14T01:21:00.873Z,1.1
2023-02-14T01:22:00.574Z,1.1
2023-02-14T01:23:00.571Z,1.1
2023-02-14T01:24:00.590Z,1.1
2023-02-14T01:25:00.568Z,1.1
2023-02-14T01:26:00.586Z,1.1
2023-02-14T01:27:00.574Z,1.1
2023-02-14T01:28:00.597Z,1.1
2023-02-14T01:29:00.603Z,1.1
2023-02-14T01:30:00.762Z,1.1
2023-02-14T01:31:00.958Z,1.1
2023-02-14T01:32:00.620Z,1.1
2023-02-14T01:33:00.584Z,1.1
2023-02-14T01:34:00.595Z,1.1
2023-02-14T01:35:00.610Z,1.1
2023-02-14T01:36:00.607Z,1.1
2023-02-14T01:37:00.581Z,1.1
2023-02-14T01:38:00.588Z,1.1
2023-02-14T01:39:00.590Z,1.1
2023-02-14T01:40:00.616Z,1.1
2023-02-14T01:41:01.038Z,1.1
2023-02-14T01:42:00.587Z,1.1
2023-02-14T01:43:00.635Z,1.1
2023-02-14T01:44:00.608Z,1.1
2023-02-14T01:45:00.620Z,1.1
2023-02-14T01:46:00.649Z,1.1
2023-02-14T01:47:00.596Z,1.1
2023-02-14T01:48:00.594Z,1.1
2023-02-14T01:49:00.601Z,1.1
2023-02-14T01:50:00.702Z,1.1
2023-02-14T01:51:01.037Z,1.1
2023-02-14T01:52:03.052Z,1.1
2023-02-14T01:53:00.616Z,1.1
2023-02-14T01:54:00.607Z,1.1
2023-02-14T01:55:00.606Z,1.1
2023-02-14T01:56:00.628Z,1.1
2023-02-14T01:57:00.634Z,1.1
2023-02-14T01:58:00.627Z,1.1
2023-02-14T01:59:00.621Z,1.1
2023-02-14T02:00:00.822Z,1.1
2023-02-14T02:01:01.003Z,1.1
2023-02-14T02:02:00.674Z,1.1
2023-02-14T02:03:00.677Z,1.1
2023-02-14T02:04:00.618Z,1.1
2023-02-14T02:05:00.640Z,1.1
2023-02-14T02:06:00.642Z,1.1
2023-02-14T02:07:00.637Z,1.1
2023-02-14T02:08:00.624Z,1.1
2023-02-14T02:09:00.703Z,1.1
2023-02-14T02:10:00.748Z,1.1
2023-02-14T02:11:01.039Z,1.1
2023-02-14T02:12:00.680Z,1.1
2023-02-14T02:13:00.845Z,1.1
2023-02-14T02:14:00.629Z,1.1
2023-02-14T02:15:00.682Z,1.1
2023-02-14T02:16:00.650Z,1.1
2023-02-14T02:17:00.705Z,1.1
2023-02-14T02:18:00.645Z,1.1
2023-02-14T02:19:00.657Z,1.1
2023-02-14T02:20:00.666Z,1.1
2023-02-14T02:21:00.999Z,1.1
2023-02-14T02:22:00.656Z,1.1
2023-02-14T02:23:00.638Z,1.1
2023-02-14T02:24:00.644Z,1.1
2023-02-14T02:25:00.644Z,1.1
2023-02-14T02:26:00.664Z,1.1
2023-02-14T02:27:00.663Z,1.1
2023-02-14T02:28:00.665Z,1.1
2023-02-14T02:29:00.646Z,1.1
2023-02-14T02:30:00.754Z,1.1
2023-02-14T02:31:01.206Z,1.1
2023-02-14T02:32:00.822Z,1.1
2023-02-14T02:33:00.651Z,1.1
2023-02-14T02:34:00.660Z,1.1
2023-02-14T02:35:00.670Z,1.1
2023-02-14T02:36:00.675Z,1.1
2023-02-14T02:37:00.677Z,1.1
2023-02-14T02:38:00.682Z,1.1
2023-02-14T02:39:00.668Z,1.1
2023-02-14T02:40:00.678Z,1.1
2023-02-14T02:41:01.008Z,1.1
2023-02-14T02:42:00.662Z,1.1
2023-02-14T02:43:00.658Z,1.1
2023-02-14T02:44:02.343Z,1.1
2023-02-14T02:45:00.667Z,1.1
2023-02-14T02:46:00.715Z,1.1
2023-02-14T02:47:00.663Z,1.1
2023-02-14T02:48:00.664Z,1.1
2023-02-14T02:49:00.663Z,1.1
2023-02-14T02:50:00.670Z,1.1
2023-02-14T02:51:00.941Z,1.1
2023-02-14T02:52:00.677Z,1.1
2023-02-14T02:53:00.666Z,1.1
2023-02-14T02:54:00.672Z,1.1
2023-02-14T02:55:00.698Z,1.1
2023-02-14T02:56:00.727Z,1.1
2023-02-14T02:57:00.696Z,1.1
2023-02-14T02:58:00.688Z,1.1
2023-02-14T02:59:00.675Z,1.1
2023-02-14T03:00:00.685Z,1.1
2023-02-14T03:01:01.433Z,1.1
2023-02-14T03:02:01.050Z,1.1
2023-02-14T03:03:01.051Z,1.1
2023-02-14T03:04:01.055Z,1.1
2023-02-14T03:05:01.101Z,1.1
2023-02-14T03:06:01.077Z,1.1
2023-02-14T03:07:01.062Z,1.1
2023-02-14T03:08:01.076Z,1.1
2023-02-14T03:09:01.062Z,1.1
2023-02-14T03:10:01.089Z,1.1
2023-02-14T03:11:01.419Z,1.1
2023-02-14T03:12:01.066Z,1.1
2023-02-14T03:13:01.064Z,1.1
2023-02-14T03:14:01.074Z,1.1
2023-02-14T03:15:01.098Z,1.1
2023-02-14T03:16:01.180Z,1.1
2023-02-14T03:17:01.069Z,1.1
2023-02-14T03:18:01.078Z,1.1
2023-02-14T03:19:01.094Z,1.1
2023-02-14T03:20:01.137Z,1.1
2023-02-14T03:21:01.385Z,1.1
2023-02-14T03:22:01.095Z,1.1
2023-02-14T03:23:01.106Z,1.1
2023-02-14T03:24:01.093Z,1.1
2023-02-14T03:25:01.088Z,1.1
2023-02-14T03:26:01.108Z,1.1
2023-02-14T03:27:01.092Z,1.1
2023-02-14T03:28:01.082Z,1.1
2023-02-14T03:29:01.104Z,1.1
2023-02-14T03:30:01.224Z,1.1
2023-02-14T03:31:01.652Z,1.1
2023-02-14T03:32:01.280Z,1.1
2023-02-14T03:33:01.133Z,1.1
2023-02-14T03:34:01.089Z,1.1
2023-02-14T03:35:01.110Z,1.1
2023-02-14T03:36:01.127Z,1.1
2023-02-14T03:37:01.095Z,1.1
2023-02-14T03:38:01.093Z,1.1
2023-02-14T03:39:01.091Z,1.1
2023-02-14T03:40:01.138Z,1.1
2023-02-14T03:41:01.592Z,1.1
2023-02-14T03:42:01.093Z,1.1
2023-02-14T03:43:01.102Z,1.1
2023-02-14T03:44:01.104Z,1.1
2023-02-14T03:45:01.131Z,1.1
2023-02-14T03:46:01.192Z,1.1
2023-02-14T03:47:01.126Z,1.1
2023-02-14T03:48:01.098Z,1.1
2023-02-14T03:49:01.099Z,1.1
2023-02-14T03:50:01.119Z,1.1
2023-02-14T03:51:01.318Z,1.1
2023-02-14T03:52:01.125Z,1.1
2023-02-14T03:53:01.102Z,1.1
2023-02-14T03:54:01.105Z,1.1
2023-02-14T03:55:01.118Z,1.1
2023-02-14T03:56:01.122Z,1.1
2023-02-14T03:57:01.131Z,1.1
2023-02-14T03:58:01.120Z,1.1
2023-02-14T03:59:01.155Z,1.1
2023-02-14T04:00:01.160Z,1.1
2023-02-14T04:01:01.551Z,1.1
2023-02-14T04:02:01.207Z,1.1
2023-02-14T04:03:01.138Z,1.1
2023-02-14T04:04:01.134Z,1.1
2023-02-14T04:05:01.122Z,1.1
2023-02-14T04:06:01.143Z,1.1
2023-02-14T04:07:01.129Z,1.1
2023-02-14T04:08:01.139Z,1.1
2023-02-14T04:09:01.118Z,1.1
2023-02-14T04:10:01.139Z,1.1
2023-02-14T04:11:01.532Z,1.1
2023-02-14T04:12:01.138Z,1.1
2023-02-14T04:13:01.148Z,1.1
2023-02-14T04:14:01.176Z,1.1
2023-02-14T04:15:01.153Z,1.1
2023-02-14T04:16:01.219Z,1.1
2023-02-14T04:17:01.149Z,1.1
2023-02-14T04:18:01.152Z,1.1
2023-02-14T04:19:01.131Z,1.1
2023-02-14T04:20:01.169Z,1.1
2023-02-14T04:21:01.434Z,1.1
2023-02-14T04:22:01.157Z,1.1
2023-02-14T04:23:03.288Z,1.1
2023-02-14T04:24:01.147Z,1.1
2023-02-14T04:25:01.140Z,1.1
2023-02-14T04:26:01.173Z,1.1
2023-02-14T04:27:01.161Z,1.1
2023-02-14T04:28:01.135Z,1.1
2023-02-14T04:29:01.138Z,1.1
2023-02-14T04:30:01.309Z,1.1
2023-02-14T04:31:01.786Z,1.1
2023-02-14T04:32:01.397Z,1.1
2023-02-14T04:33:01.144Z,1.1
2023-02-14T04:34:01.149Z,1.1
2023-02-14T04:35:01.166Z,1.1
2023-02-14T04:36:01.174Z,1.1
2023-02-14T04:37:01.175Z,1.1
2023-02-14T04:38:01.146Z,1.1
2023-02-14T04:39:01.152Z,1.1
2023-02-14T04:40:01.180Z,1.1
2023-02-14T04:41:01.555Z,1.1
2023-02-14T04:42:01.181Z,1.1
2023-02-14T04:43:01.160Z,1.1
2023-02-14T04:44:01.172Z,1.1
2023-02-14T04:45:03.818Z,1.1
2023-02-14T04:46:01.177Z,1.1
2023-02-14T04:47:01.181Z,1.1
2023-02-14T04:48:00.490Z,1.1
2023-02-14T04:49:00.479Z,1.1
2023-02-14T04:50:00.516Z,1.1
2023-02-14T04:51:00.905Z,1.1
2023-02-14T04:52:00.495Z,1.1
2023-02-14T04:53:00.519Z,1.1
2023-02-14T04:54:00.491Z,1.1
2023-02-14T04:55:00.505Z,1.1
2023-02-14T04:56:00.512Z,1.1
2023-02-14T04:57:00.498Z,1.1
2023-02-14T04:58:00.495Z,1.1
2023-02-14T04:59:00.491Z,1.1
2023-02-14T05:00:00.511Z,1.1
2023-02-14T05:01:00.972Z,1.1
2023-02-14T05:02:00.631Z,1.1
2023-02-14T05:03:00.518Z,1.1
2023-02-14T05:04:00.504Z,1.1
2023-02-14T05:05:00.498Z,1.1
2023-02-14T05:06:00.519Z,1.1
2023-02-14T05:07:00.499Z,1.1
2023-02-14T05:08:00.499Z,1.1
2023-02-14T05:09:00.515Z,1.1
2023-02-14T05:10:00.497Z,1.1
2023-02-14T05:11:00.837Z,1.1
2023-02-14T05:12:00.506Z,1.1
2023-02-14T05:13:00.497Z,1.1
2023-02-14T05:14:00.504Z,1.1
2023-02-14T05:15:00.528Z,1.1
2023-02-14T05:16:00.598Z,1.1
2023-02-14T05:17:00.532Z,1.1
2023-02-14T05:18:00.518Z,1.1
2023-02-14T05:19:00.529Z,1.1
2023-02-14T05:20:00.525Z,1.1
2023-02-14T05:21:00.865Z,1.1
2023-02-14T05:22:00.507Z,1.1
2023-02-14T05:23:00.509Z,1.1
2023-02-14T05:24:00.521Z,1.1
2023-02-14T05:25:01.225Z,1.1
2023-02-14T05:26:00.531Z,1.1
2023-02-14T05:27:00.522Z,1.1
2023-02-14T05:28:00.512Z,1.1
2023-02-14T05:29:00.541Z,1.1
2023-02-14T05:30:00.579Z,1.1
2023-02-14T05:31:01.014Z,1.1
2023-02-14T05:32:00.642Z,1.1
2023-02-14T05:33:01.235Z,1.1
2023-02-14T05:34:00.551Z,1.1
2023-02-14T05:35:01.315Z,1.1
2023-02-14T05:36:00.602Z,1.1
2023-02-14T05:37:00.629Z,1.1
2023-02-14T05:38:01.314Z,1.1
2023-02-14T05:39:00.557Z,1.1
2023-02-14T05:40:00.559Z,1.1
2023-02-14T05:41:00.975Z,1.1
2023-02-14T05:42:00.580Z,1.1
2023-02-14T05:43:00.621Z,1.1
2023-02-14T05:44:00.625Z,1.1
2023-02-14T05:45:00.626Z,1.1
2023-02-14T05:46:00.781Z,1.1
2023-02-14T05:47:00.631Z,1.1
2023-02-14T05:48:00.699Z,1.1
2023-02-14T05:49:00.700Z,1.1
2023-02-14T05:50:00.769Z,1.1
2023-02-14T05:51:01.018Z,1.1
2023-02-14T05:52:00.675Z,1.1
2023-02-14T05:53:00.708Z,1.1
2023-02-14T05:54:00.650Z,1.1
2023-02-14T05:55:00.550Z,1.1
2023-02-14T05:56:00.569Z,1.1
2023-02-14T05:57:00.559Z,1.1
2023-02-14T05:58:00.584Z,1.1
2023-02-14T05:59:00.552Z,1.1
2023-02-14T06:00:00.584Z,1.1
2023-02-14T06:01:00.975Z,1.1
2023-02-14T06:02:00.630Z,1.1
2023-02-14T06:03:00.568Z,1.1
2023-02-14T06:04:00.645Z,1.1
2023-02-14T06:05:00.560Z,1.1
2023-02-14T06:06:00.580Z,1.1
2023-02-14T06:07:00.576Z,1.3
2023-02-14T06:08:00.576Z,1.7
2023-02-14T06:09:00.568Z,2
2023-02-14T06:10:00.610Z,2.4
2023-02-14T06:11:00.852Z,2.9
2023-02-14T06:12:00.572Z,3.5
2023-02-14T06:13:00.583Z,4.2
2023-02-14T06:14:00.592Z,5
2023-02-14T06:15:00.604Z,6
2023-02-14T06:16:00.612Z,7
2023-02-14T06:17:00.732Z,8.2
2023-02-14T06:18:00.578Z,9.6
2023-02-14T06:19:00.597Z,11.5
2023-02-14T06:20:00.603Z,13.7
2023-02-14T06:21:00.987Z,16.4
2023-02-14T06:22:00.586Z,19.4
2023-02-14T06:23:00.608Z,22.7
2023-02-14T06:24:00.582Z,25.9
2023-02-14T06:25:00.587Z,29.9
2023-02-14T06:26:00.609Z,33.6
2023-02-14T06:27:00.593Z,37.5
2023-02-14T06:28:00.609Z,41.2
2023-02-14T06:29:00.593Z,45.9
2023-02-14T06:30:00.707Z,50.5
2023-02-14T06:31:01.104Z,55.6
2023-02-14T06:32:00.708Z,60.5
2023-02-14T06:33:00.593Z,65.7
2023-02-14T06:34:00.589Z,73.2
2023-02-14T06:35:00.591Z,81.5
2023-02-14T06:36:00.610Z,87.6
2023-02-14T06:37:00.648Z,94.1
2023-02-14T06:38:00.615Z,98.7
2023-02-14T06:39:00.596Z,103.5
2023-02-14T06:40:00.614Z,111.2
2023-02-14T06:41:00.868Z,115.3
2023-02-14T06:42:00.602Z,121
2023-02-14T06:43:00.626Z,130
2023-02-14T06:44:00.598Z,136.3
2023-02-14T06:45:00.609Z,144.7
2023-02-14T06:46:00.641Z,150
2023-02-14T06:47:00.627Z,157.4
2023-02-14T06:48:00.604Z,167.1
2023-02-14T06:49:00.610Z,177.3
2023-02-14T06:50:00.643Z,190.5
2023-02-14T06:51:00.971Z,202.3
2023-02-14T06:52:00.615Z,214.8
2023-02-14T06:53:00.612Z,225.3
2023-02-14T06:54:00.614Z,239.2
2023-02-14T06:55:00.689Z,253.9
2023-02-14T06:56:00.637Z,269.5
2023-02-14T06:57:00.610Z,276.1
2023-02-14T06:58:00.627Z,286.1
2023-02-14T06:59:00.646Z,296.6
2023-02-14T07:00:00.699Z,311.1
2023-02-14T07:01:01.004Z,334.3
2023-02-14T07:02:00.651Z,346.5
2023-02-14T07:03:00.680Z,342.4
2023-02-14T07:04:00.632Z,350.6
2023-02-14T07:05:00.659Z,367.8
2023-02-14T07:06:00.676Z,367.8
2023-02-14T07:07:00.623Z,385.9
2023-02-14T07:08:00.627Z,399.9
2023-02-14T07:09:00.628Z,424.6
2023-02-14T07:10:00.652Z,440.1
2023-02-14T07:11:01.011Z,461.7
2023-02-14T07:12:00.634Z,490.1
2023-02-14T07:13:00.629Z,508
2023-02-14T07:14:00.628Z,520.3
2023-02-14T07:15:00.642Z,532.9
2023-02-14T07:16:00.735Z,539.3
2023-02-14T07:17:00.662Z,545.8
2023-02-14T07:18:00.632Z,539.3
2023-02-14T07:19:00.637Z,532.9
2023-02-14T07:20:00.658Z,539.3
2023-02-14T07:21:01.188Z,539.3
2023-02-14T07:22:00.640Z,552.4
2023-02-14T07:23:00.663Z,579.4
2023-02-14T07:24:00.648Z,593.4
2023-02-14T07:25:00.726Z,593.4
2023-02-14T07:26:00.668Z,600.6
2023-02-14T07:27:00.657Z,615.1
2023-02-14T07:28:00.648Z,653
2023-02-14T07:29:00.652Z,676.9
2023-02-14T07:30:00.770Z,676.9
2023-02-14T07:31:01.071Z,685.1
2023-02-14T07:32:00.781Z,685.1
2023-02-14T07:33:00.650Z,685.1
2023-02-14T07:34:00.657Z,718.6
2023-02-14T07:35:00.687Z,753.8
2023-02-14T07:36:00.676Z,772.1
2023-02-14T07:37:00.829Z,772.1
2023-02-14T07:38:00.696Z,744.8
2023-02-14T07:39:00.672Z,753.8
2023-02-14T07:40:00.690Z,772.1
2023-02-14T07:41:01.007Z,829.5
2023-02-14T07:42:00.671Z,870.2
2023-02-14T07:43:00.656Z,912.8
2023-02-14T07:44:00.668Z,923.7
2023-02-14T07:45:09.385Z,934.9
2023-02-14T07:46:00.718Z,980.7
2023-02-14T07:47:00.694Z,1053.6
2023-02-14T07:48:00.665Z,1132
2023-02-14T07:49:00.679Z,1132
2023-02-14T07:50:00.692Z,1079.1
2023-02-14T07:51:01.014Z,1053.6
2023-02-14T07:52:00.681Z,1066.3
2023-02-14T07:53:00.682Z,1105.3
2023-02-14T07:54:00.671Z,1201.7
2023-02-14T07:55:00.719Z,1245.7
2023-02-14T07:56:00.693Z,1245.7
2023-02-14T07:57:00.684Z,1245.7
2023-02-14T07:58:00.678Z,1245.7
2023-02-14T07:59:00.672Z,1245.7
2023-02-14T08:00:00.723Z,1230.8
2023-02-14T08:01:01.089Z,1230.8
2023-02-14T08:02:00.792Z,1245.7
2023-02-14T08:03:00.680Z,1245.7
2023-02-14T08:04:00.679Z,1275.8
2023-02-14T08:05:00.832Z,1322.4
2023-02-14T08:06:00.701Z,1370.7
2023-02-14T08:07:00.714Z,1420.8
2023-02-14T08:08:00.706Z,1437.9
2023-02-14T08:09:00.688Z,1472.7
2023-02-14T08:10:00.723Z,1508.3
2023-02-14T08:11:00.983Z,1508.3
2023-02-14T08:12:00.714Z,1490.4
2023-02-14T08:13:00.744Z,1420.8
2023-02-14T08:14:00.690Z,1403.9
2023-02-14T08:15:00.727Z,1403.9
2023-02-14T08:16:00.775Z,1508.3
2023-02-14T08:17:00.710Z,1563.4
2023-02-14T08:18:00.691Z,1620.5
2023-02-14T08:19:00.695Z,1659.7
2023-02-14T08:20:00.760Z,1720.4
2023-02-14T08:21:01.064Z,1848.4
2023-02-14T08:22:00.698Z,1938.9
2023-02-14T08:23:00.702Z,1938.9
2023-02-14T08:24:00.708Z,1915.9
2023-02-14T08:25:00.952Z,1962.2
2023-02-14T08:26:00.723Z,2009.8
2023-02-14T08:27:00.712Z,2009.8
2023-02-14T08:28:00.723Z,1985.8
2023-02-14T08:29:00.699Z,1962.2
2023-02-14T08:30:00.801Z,1962.2
2023-02-14T08:31:01.085Z,2009.8
2023-02-14T08:32:00.925Z,2058.4
2023-02-14T08:33:00.770Z,2108.2
2023-02-14T08:34:00.724Z,2159.2
2023-02-14T08:35:00.767Z,2159.2
2023-02-14T08:36:00.723Z,2211.5
2023-02-14T08:37:00.728Z,2185.2
2023-02-14T08:38:00.821Z,2185.2
2023-02-14T08:39:00.713Z,2211.5
2023-02-14T08:40:00.730Z,2265.1
2023-02-14T08:41:01.165Z,2319.9
2023-02-14T08:42:00.723Z,2319.9
2023-02-14T08:43:00.727Z,2319.9
2023-02-14T08:44:00.772Z,2376
2023-02-14T08:45:00.753Z,2404.6
2023-02-14T08:46:01.090Z,2404.6
2023-02-14T08:47:00.781Z,2376
2023-02-14T08:48:00.732Z,2319.9
2023-02-14T08:49:00.735Z,2265.1
2023-02-14T08:50:00.760Z,2319.9
2023-02-14T08:51:01.048Z,2376
2023-02-14T08:52:00.757Z,2376
2023-02-14T08:53:00.777Z,2347.8
2023-02-14T08:54:00.772Z,2319.9
2023-02-14T08:55:00.760Z,2292.3
2023-02-14T08:56:01.143Z,2292.3
2023-02-14T08:57:00.777Z,2319.9
2023-02-14T08:58:00.762Z,2433.5
2023-02-14T08:59:00.757Z,2492.4
2023-02-14T09:00:00.839Z,2552.8
2023-02-14T09:01:01.155Z,2583.5
2023-02-14T09:02:00.813Z,2646
2023-02-14T09:03:00.744Z,2677.9
2023-02-14T09:04:00.782Z,2677.9
2023-02-14T09:05:00.761Z,2710.1
2023-02-14T09:06:00.780Z,2710.1
2023-02-14T09:07:00.744Z,2742.6
2023-02-14T09:08:00.761Z,2809
2023-02-14T09:09:02.584Z,2775.6
2023-02-14T09:10:00.818Z,2742.6
2023-02-14T09:11:01.072Z,2710.1
2023-02-14T09:12:00.758Z,2677.9
2023-02-14T09:13:00.940Z,2614.6
2023-02-14T09:14:00.791Z,2614.6
2023-02-14T09:15:00.863Z,2677.9
2023-02-14T09:16:00.851Z,2677.9
2023-02-14T09:17:00.853Z,2710.1
2023-02-14T09:18:00.763Z,2775.6
2023-02-14T09:19:00.760Z,2775.6
2023-02-14T09:20:00.856Z,2775.6
2023-02-14T09:21:01.263Z,2809
2023-02-14T09:22:00.850Z,2842.8
2023-02-14T09:23:00.766Z,2842.8
2023-02-14T09:24:00.769Z,2842.8
2023-02-14T09:25:00.830Z,2742.6
2023-02-14T09:26:00.786Z,2809
2023-02-14T09:27:00.766Z,2877.1
2023-02-14T09:28:00.808Z,2946.7
2023-02-14T09:29:01.049Z,3018
2023-02-14T09:30:00.880Z,3018
2023-02-14T09:31:01.167Z,2982.2
2023-02-14T09:32:00.882Z,3018
2023-02-14T09:33:00.807Z,3054.3
2023-02-14T09:34:00.787Z,3165.8
2023-02-14T09:35:00.820Z,3165.8
2023-02-14T09:36:00.805Z,3128.2
2023-02-14T09:37:00.796Z,3165.8
2023-02-14T09:38:00.830Z,3204.1
2023-02-14T09:39:00.792Z,3242.6
2023-02-14T09:40:00.839Z,3242.6
2023-02-14T09:41:01.053Z,3242.6
2023-02-14T09:42:00.821Z,3281.6
2023-02-14T09:43:02.134Z,3281.6
2023-02-14T09:44:00.812Z,3321.1
2023-02-14T09:45:00.821Z,3401.4
2023-02-14T09:46:00.917Z,3361
2023-02-14T09:47:00.786Z,3321.1
2023-02-14T09:48:00.810Z,3281.6
2023-02-14T09:49:00.858Z,3321.1
2023-02-14T09:50:00.847Z,3361
2023-02-14T09:51:01.079Z,3321.1
2023-02-14T09:52:00.801Z,3321.1
2023-02-14T09:53:00.806Z,3321.1
2023-02-14T09:54:00.790Z,3321.1
2023-02-14T09:55:00.840Z,3281.6
2023-02-14T09:56:00.809Z,3321.1
2023-02-14T09:57:00.806Z,3321.1
2023-02-14T09:58:00.817Z,3401.4
2023-02-14T09:59:00.795Z,3401.4
2023-02-14T10:00:00.838Z,3442.3
2023-02-14T10:01:01.247Z,3483.7
2023-02-14T10:02:00.823Z,3361
2023-02-14T10:03:00.837Z,3361
2023-02-14T10:04:00.824Z,3321.1
2023-02-14T10:05:00.824Z,3242.6
2023-02-14T10:06:00.827Z,3165.8
2023-02-14T10:07:00.824Z,3242.6
2023-02-14T10:08:00.802Z,3128.2
2023-02-14T10:09:00.838Z,3165.8
2023-02-14T10:10:00.827Z,3054.3
2023-02-14T10:11:01.209Z,3018
2023-02-14T10:12:00.833Z,3091.1
2023-02-14T10:13:00.804Z,3204.1
2023-02-14T10:14:00.950Z,3321.1
2023-02-14T10:15:01.073Z,3483.7
2023-02-14T10:16:00.829Z,3361
2023-02-14T10:17:01.090Z,3361
2023-02-14T10:18:00.830Z,3401.4
2023-02-14T10:19:00.813Z,3483.7
2023-02-14T10:20:00.842Z,3442.3
2023-02-14T10:21:01.246Z,3442.3
2023-02-14T10:22:00.836Z,3401.4
2023-02-14T10:23:00.828Z,3442.3
2023-02-14T10:24:00.910Z,3568
2023-02-14T10:25:00.846Z,3568
2023-02-14T10:26:00.890Z,3568
2023-02-14T10:27:00.869Z,3611.1
2023-02-14T10:28:00.834Z,3483.7
2023-02-14T10:29:00.954Z,3568
2023-02-14T10:30:01.014Z,3654.5
2023-02-14T10:31:01.477Z,3742.9
2023-02-14T10:32:00.966Z,3742.9
2023-02-14T10:33:01.032Z,3742.9
2023-02-14T10:34:00.850Z,3742.9
2023-02-14T10:35:01.045Z,3742.9
2023-02-14T10:36:00.933Z,3742.9
2023-02-14T10:37:00.998Z,3698.5
2023-02-14T10:38:00.864Z,3833.5
2023-02-14T10:39:00.836Z,3788
2023-02-14T10:40:00.858Z,3742.9
2023-02-14T10:41:01.120Z,3742.9
2023-02-14T10:42:00.839Z,3742.9
2023-02-14T10:43:00.843Z,3698.5
2023-02-14T10:44:00.839Z,3742.9
2023-02-14T10:45:00.860Z,3926.3
2023-02-14T10:46:00.892Z,3926.3
2023-02-14T10:47:00.842Z,3833.5
2023-02-14T10:48:00.827Z,3698.5
2023-02-14T10:49:00.796Z,3742.9
2023-02-14T10:50:00.806Z,3926.3
2023-02-14T10:51:01.173Z,4021.3
2023-02-14T10:52:00.860Z,3973.5
2023-02-14T10:53:00.680Z,4218.4
2023-02-14T10:54:00.657Z,4320.5
2023-02-14T10:55:00.654Z,4372.4
2023-02-14T10:56:00.613Z,4118.8
2023-02-14T10:57:00.583Z,3879.6
2023-02-14T10:58:00.555Z,3742.9
2023-02-14T10:59:00.508Z,3833.5
2023-02-14T11:00:00.539Z,3973.5
2023-02-14T11:01:00.761Z,4320.5
2023-02-14T11:02:00.454Z,4218.4
2023-02-14T11:03:00.468Z,3973.5
2023-02-14T11:04:00.545Z,3833.5
2023-02-14T11:05:00.473Z,3654.5
2023-02-14T11:06:00.496Z,3654.5
2023-02-14T11:07:00.446Z,3742.9
2023-02-14T11:08:00.476Z,3833.5
2023-02-14T11:09:00.448Z,4021.3
2023-02-14T11:10:00.485Z,4218.4
2023-02-14T11:11:00.829Z,4269.1
2023-02-14T11:12:00.493Z,4168.3
2023-02-14T11:13:00.453Z,4168.3
2023-02-14T11:14:00.465Z,4425
2023-02-14T11:15:00.490Z,4478.2
2023-02-14T11:16:00.655Z,4269.1
2023-02-14T11:17:00.540Z,4372.4
2023-02-14T11:18:00.484Z,4425
2023-02-14T11:19:00.467Z,4425
2023-02-14T11:20:00.482Z,4532.1
2023-02-14T11:21:00.538Z,4320.5
2023-02-14T11:22:00.479Z,4218.4
2023-02-14T11:23:00.494Z,3833.5
2023-02-14T11:24:00.477Z,3698.5
2023-02-14T11:25:01.133Z,3926.3
2023-02-14T11:26:00.758Z,3742.9
2023-02-14T11:27:00.489Z,3698.5
2023-02-14T11:28:00.526Z,4118.8
2023-02-14T11:29:00.494Z,3926.3
2023-02-14T11:30:00.569Z,3742.9
2023-02-14T11:31:00.904Z,3788
2023-02-14T11:32:00.530Z,4069.8
2023-02-14T11:33:00.501Z,4372.4
2023-02-14T11:34:01.886Z,4320.5
2023-02-14T11:35:00.511Z,4168.3
2023-02-14T11:36:00.469Z,4168.3
2023-02-14T11:37:00.488Z,4218.4
2023-02-14T11:38:00.481Z,4269.1
2023-02-14T11:39:00.505Z,4168.3
2023-02-14T11:40:00.500Z,4218.4
2023-02-14T11:41:00.690Z,4320.5
2023-02-14T11:42:00.517Z,4118.8
2023-02-14T11:43:13.354Z,3833.5
2023-02-14T11:44:00.561Z,3926.3
2023-02-14T11:45:00.513Z,4168.3
2023-02-14T11:46:00.580Z,4425
2023-02-14T11:47:00.488Z,4118.8
2023-02-14T11:48:00.508Z,3879.6
2023-02-14T11:49:00.518Z,4168.3
2023-02-14T11:50:00.510Z,4754.3
2023-02-14T11:51:00.901Z,4586.8
2023-02-14T11:52:00.563Z,4425
2023-02-14T11:53:01.408Z,4021.3
2023-02-14T11:54:00.597Z,3879.6
2023-02-14T11:55:00.518Z,3833.5
2023-02-14T11:56:00.515Z,4372.4
2023-02-14T11:57:00.515Z,4754.3
2023-02-14T11:58:00.504Z,4987.1
2023-02-14T11:59:00.522Z,4987.1
2023-02-14T12:00:00.521Z,4869.3
2023-02-14T12:01:00.983Z,4869.3
2023-02-14T12:02:00.523Z,4869.3
2023-02-14T12:03:00.491Z,4697.8
2023-02-14T12:04:00.593Z,4642
2023-02-14T12:05:00.513Z,4372.4
2023-02-14T12:06:00.513Z,3879.6
2023-02-14T12:07:00.504Z,3833.5
2023-02-14T12:08:00.545Z,3973.5
2023-02-14T12:09:00.629Z,4118.8
2023-02-14T12:10:00.571Z,4168.3
2023-02-14T12:11:00.854Z,3926.3
2023-02-14T12:12:00.905Z,3698.5
2023-02-14T12:13:00.902Z,3611.1
2023-02-14T12:14:01.060Z,3568
2023-02-14T12:15:00.953Z,3654.5
2023-02-14T12:16:00.977Z,3401.4
2023-02-14T12:17:00.957Z,3833.5
2023-02-14T12:18:00.887Z,4218.4
2023-02-14T12:19:01.052Z,4069.8
2023-02-14T12:20:00.980Z,3654.5
2023-02-14T12:21:01.348Z,3568
2023-02-14T12:22:01.060Z,3742.9
2023-02-14T12:23:00.914Z,3879.6
2023-02-14T12:24:01.081Z,4021.3
2023-02-14T12:25:01.112Z,3879.6
2023-02-14T12:26:00.520Z,3833.5
2023-02-14T12:27:00.536Z,3742.9
2023-02-14T12:28:00.526Z,3788
2023-02-14T12:29:00.549Z,3654.5
2023-02-14T12:30:00.652Z,3698.5
2023-02-14T12:31:00.914Z,4021.3
2023-02-14T12:32:01.115Z,4372.4
2023-02-14T12:33:00.531Z,4372.4
2023-02-14T12:34:00.554Z,4218.4
2023-02-14T12:35:00.528Z,4372.4
2023-02-14T12:36:00.548Z,4320.5
2023-02-14T12:37:00.539Z,4218.4
2023-02-14T12:38:04.753Z,4069.8
2023-02-14T12:39:00.567Z,3926.3
2023-02-14T12:40:00.553Z,4021.3
2023-02-14T12:41:00.935Z,4021.3
2023-02-14T12:42:00.559Z,4069.8
2023-02-14T12:43:00.555Z,4118.8
2023-02-14T12:44:00.581Z,3926.3
2023-02-14T12:45:00.543Z,3742.9
2023-02-14T12:46:00.761Z,3973.5
2023-02-14T12:47:00.559Z,4118.8
2023-02-14T12:48:00.531Z,4269.1
2023-02-14T12:49:00.560Z,4168.3
2023-02-14T12:50:00.558Z,4118.8
2023-02-14T12:51:00.876Z,4218.4
2023-02-14T12:52:00.562Z,4118.8
2023-02-14T12:53:00.555Z,3973.5
2023-02-14T12:54:00.567Z,4021.3
2023-02-14T12:55:00.581Z,3973.5
2023-02-14T12:56:00.563Z,4168.3
2023-02-14T12:57:00.712Z,4320.5
2023-02-14T12:58:00.553Z,4218.4
2023-02-14T12:59:00.564Z,4021.3
2023-02-14T13:00:00.562Z,4021.3
2023-02-14T13:01:00.813Z,4021.3
2023-02-14T13:02:00.611Z,4118.8
2023-02-14T13:03:00.622Z,4218.4
2023-02-14T13:04:00.568Z,4118.8
2023-02-14T13:05:00.631Z,4218.4
2023-02-14T13:06:00.603Z,4118.8
2023-02-14T13:07:00.582Z,4269.1
2023-02-14T13:08:00.594Z,4372.4
2023-02-14T13:09:00.564Z,4168.3
2023-02-14T13:10:00.627Z,4218.4